createdAt,value
2023-02-23T00:01:37.121Z,98048.41
2023-02-23T00:04:04.646Z,98045.81
2023-02-23T00:06:33.154Z,98042.84
2023-02-23T00:09:01.205Z,98043.69
2023-02-23T00:11:28.514Z,98037.06
2023-02-23T00:13:56.910Z,98047.59
2023-02-23T00:16:26.051Z,98038.78
2023-02-23T00:18:55.389Z,98035.03
2023-02-23T00:21:29.939Z,98038.53
2023-02-23T00:23:59.002Z,98031.00
2023-02-23T00:26:30.809Z,98037.84
2023-02-23T00:28:58.290Z,98035.44
2023-02-23T00:31:27.279Z,98036.56
2023-02-23T00:33:56.214Z,98030.91
2023-02-23T00:36:26.256Z,98028.34
2023-02-23T00:38:58.123Z,98030.28
2023-02-23T00:41:30.785Z,98030.03
2023-02-23T00:44:00.603Z,98031.69
2023-02-23T00:46:29.930Z,98021.94
2023-02-23T00:49:00.119Z,98031.44
2023-02-23T00:51:31.012Z,98030.47
2023-02-23T00:54:00.405Z,98031.03
2023-02-23T00:56:27.930Z,98025.09
2023-02-23T00:58:55.150Z,98038.69
2023-02-23T01:01:25.627Z,98032.34
2023-02-23T01:03:55.491Z,98026.56
2023-02-23T01:06:22.750Z,98035.84
2023-02-23T01:08:56.606Z,98027.84
2023-02-23T01:11:30.930Z,98021.97
2023-02-23T01:14:00.014Z,98028.94
2023-02-23T01:16:30.231Z,98027.00
2023-02-23T01:19:00.036Z,98028.97
2023-02-23T01:21:29.867Z,98031.75
2023-02-23T01:23:57.100Z,98032.53
2023-02-23T01:26:34.015Z,98029.03
2023-02-23T01:29:05.845Z,98029.25
2023-02-23T01:31:34.114Z,98028.34
2023-02-23T01:34:03.081Z,98033.53
2023-02-23T01:36:37.124Z,98027.00
2023-02-23T01:39:11.992Z,98036.59
2023-02-23T01:41:42.364Z,98026.22
2023-02-23T01:44:15.405Z,98018.22
2023-02-23T01:46:45.227Z,98022.44
2023-02-23T01:49:22.358Z,98021.91
2023-02-23T01:51:55.551Z,98021.13
2023-02-23T01:54:28.943Z,98021.31
2023-02-23T01:56:58.763Z,98013.38
2023-02-23T01:59:49.179Z,98021.06
2023-02-23T02:02:22.148Z,98024.78
2023-02-23T02:04:52.309Z,98021.84
2023-02-23T02:07:25.828Z,98019.47
2023-02-23T02:10:10.838Z,98013.72
2023-02-23T02:12:51.981Z,98008.09
2023-02-23T02:15:20.812Z,98010.75
2023-02-23T02:17:47.448Z,98012.91
2023-02-23T02:20:33.220Z,98014.34
2023-02-23T02:23:36.533Z,98010.91
2023-02-23T02:26:41.364Z,98009.28
2023-02-23T02:29:20.279Z,98015.22
2023-02-23T02:32:07.903Z,98011.13
2023-02-23T02:34:46.795Z,98011.03
2023-02-23T02:37:35.292Z,98007.44
2023-02-23T02:40:17.193Z,98010.00
2023-02-23T02:43:12.390Z,98003.41
2023-02-23T02:45:57.094Z,98003.38
2023-02-23T02:48:46.643Z,98010.28
2023-02-23T02:51:31.532Z,98013.97
2023-02-23T02:54:08.776Z,98007.28
2023-02-23T02:56:40.373Z,98012.91
2023-02-23T02:59:31.068Z,98004.84
2023-02-23T03:02:17.302Z,98008.13
2023-02-23T03:05:02.846Z,98005.19
2023-02-23T03:07:55.687Z,98002.28
2023-02-23T03:10:54.675Z,98006.59
2023-02-23T03:13:49.260Z,98008.25
2023-02-23T03:16:45.519Z,98011.69
2023-02-23T03:19:42.796Z,98017.75
2023-02-23T03:23:03.096Z,98009.06
2023-02-23T03:26:04.199Z,98005.31
2023-02-23T03:28:59.540Z,98011.84
2023-02-23T03:31:56.092Z,98010.94
2023-02-23T03:34:56.254Z,98008.16
2023-02-23T03:37:57.065Z,98006.13
2023-02-23T03:40:47.893Z,98022.78
2023-02-23T03:43:40.704Z,98014.09
2023-02-23T03:46:30.043Z,98021.28
2023-02-23T03:49:19.031Z,98019.53
2023-02-23T03:52:09.171Z,98023.47
2023-02-23T03:55:03.066Z,98018.72
2023-02-23T03:57:53.619Z,98024.69
2023-02-23T04:00:47.128Z,98026.66
2023-02-23T04:03:35.678Z,98028.06
2023-02-23T04:06:23.094Z,98027.06
2023-02-23T04:09:10.090Z,98029.63
2023-02-23T04:12:40.733Z,98031.31
2023-02-23T04:15:10.802Z,98030.34
2023-02-23T04:17:37.626Z,98027.34
2023-02-23T04:20:04.607Z,98037.38
2023-02-23T04:22:31.346Z,98035.13
2023-02-23T04:24:58.162Z,98034.53
2023-02-23T04:27:24.832Z,98040.59
2023-02-23T04:29:51.629Z,98033.09
2023-02-23T04:32:20.804Z,98037.03
2023-02-23T04:34:47.592Z,98033.31
2023-02-23T04:37:14.585Z,98040.34
2023-02-23T04:39:42.847Z,98030.88
2023-02-23T04:42:10.148Z,98040.22
2023-02-23T04:44:36.799Z,98031.63
2023-02-23T04:47:04.062Z,98032.72
2023-02-23T04:49:30.885Z,98033.84
2023-02-23T04:51:57.539Z,98023.50
2023-02-23T04:54:24.214Z,98024.72
2023-02-23T04:56:50.970Z,98022.22
2023-02-23T04:59:18.418Z,98024.00
2023-02-23T05:01:45.328Z,98031.31
2023-02-23T05:04:12.401Z,98033.41
2023-02-23T05:06:39.214Z,98023.09
2023-02-23T05:09:06.922Z,98035.56
2023-02-23T05:11:33.622Z,98030.66
2023-02-23T05:14:00.408Z,98030.94
2023-02-23T05:16:27.940Z,98037.91
2023-02-23T05:18:54.643Z,98044.28
2023-02-23T05:21:21.407Z,98045.69
2023-02-23T05:23:48.452Z,98045.56
2023-02-23T05:26:15.457Z,98048.88
2023-02-23T05:28:42.967Z,98051.44
2023-02-23T05:31:11.103Z,98043.38
2023-02-23T05:33:42.394Z,98051.22
2023-02-23T05:36:14.129Z,98053.06
2023-02-23T05:38:40.928Z,98052.69
2023-02-23T05:41:09.370Z,98047.97
2023-02-23T05:43:36.247Z,98050.38
2023-02-23T05:46:07.957Z,98055.41
2023-02-23T05:48:35.020Z,98052.88
2023-02-23T05:51:07.867Z,98057.09
2023-02-23T05:53:35.211Z,98051.78
2023-02-23T05:56:04.028Z,98052.72
2023-02-23T05:58:31.512Z,98049.19
2023-02-23T06:00:58.301Z,98049.06
2023-02-23T06:03:24.989Z,98051.50
2023-02-23T06:05:57.550Z,98053.38
2023-02-23T06:08:25.585Z,98056.28
2023-02-23T06:10:53.300Z,98059.84
2023-02-23T06:13:21.245Z,98055.25
2023-02-23T06:15:49.319Z,98062.38
2023-02-23T06:18:17.532Z,98062.34
2023-02-23T06:20:45.800Z,98068.59
2023-02-23T06:23:12.996Z,98062.34
2023-02-23T06:25:40.388Z,98065.81
2023-02-23T06:28:10.551Z,98072.94
2023-02-23T06:30:38.983Z,98072.28
2023-02-23T06:33:06.893Z,98073.84
2023-02-23T06:35:34.802Z,98069.31
2023-02-23T06:38:02.560Z,98079.72
2023-02-23T06:40:29.269Z,98080.09
2023-02-23T06:42:55.982Z,98079.25
2023-02-23T06:45:22.815Z,98089.50
2023-02-23T06:47:49.610Z,98088.00
2023-02-23T06:50:16.955Z,98101.84
2023-02-23T06:52:43.559Z,98088.13
2023-02-23T06:55:10.292Z,98091.22
2023-02-23T06:57:36.981Z,98100.84
2023-02-23T07:00:04.838Z,98100.47
2023-02-23T07:02:31.766Z,98090.75
2023-02-23T07:04:58.937Z,98091.38
2023-02-23T07:07:25.698Z,98089.41
2023-02-23T07:09:52.332Z,98087.44
2023-02-23T07:12:19.508Z,98094.31
2023-02-23T07:14:46.317Z,98099.97
2023-02-23T07:17:13.091Z,98093.44
2023-02-23T07:19:39.950Z,98092.22
2023-02-23T07:22:06.621Z,98094.50
2023-02-23T07:24:33.277Z,98094.97
2023-02-23T07:26:59.933Z,98098.03
2023-02-23T07:29:28.131Z,98103.09
2023-02-23T07:31:55.383Z,98111.56
2023-02-23T07:34:22.425Z,98113.78
2023-02-23T07:36:49.290Z,98113.63
2023-02-23T07:39:16.027Z,98107.41
2023-02-23T07:41:42.719Z,98112.88
2023-02-23T07:44:18.291Z,98110.16
2023-02-23T07:46:46.387Z,98115.34
2023-02-23T07:49:13.861Z,98113.47
2023-02-23T07:51:41.020Z,98114.75
2023-02-23T07:54:07.742Z,98112.81
2023-02-23T07:56:35.400Z,98105.41
2023-02-23T07:59:02.618Z,98104.59
2023-02-23T08:01:29.360Z,98096.47
2023-02-23T08:03:56.033Z,98104.88
2023-02-23T08:06:22.711Z,98107.59
2023-02-23T08:08:49.319Z,98103.13
2023-02-23T08:11:16.047Z,98113.34
2023-02-23T08:13:43.045Z,98119.31
2023-02-23T08:16:09.798Z,98117.38
2023-02-23T08:18:36.484Z,98119.41
2023-02-23T08:21:04.841Z,98123.97
2023-02-23T08:23:33.289Z,98126.75
2023-02-23T08:26:01.300Z,98120.81
2023-02-23T08:28:29.069Z,98126.97
2023-02-23T08:30:55.795Z,98136.66
2023-02-23T08:33:22.973Z,98137.94
2023-02-23T08:35:49.655Z,98141.84
2023-02-23T08:38:18.275Z,98133.91
2023-02-23T08:40:45.311Z,98134.63
2023-02-23T08:43:12.057Z,98138.72
2023-02-23T08:45:39.542Z,98135.72
2023-02-23T08:48:07.704Z,98137.97
2023-02-23T08:50:34.602Z,98136.84
2023-02-23T08:53:01.368Z,98137.72
2023-02-23T08:55:28.021Z,98138.22
2023-02-23T08:57:54.692Z,98142.94
2023-02-23T09:00:21.805Z,98141.63
2023-02-23T09:02:48.548Z,98144.16
2023-02-23T09:05:15.935Z,98148.00
2023-02-23T09:07:46.555Z,98145.38
2023-02-23T09:10:20.191Z,98143.75
2023-02-23T09:12:46.936Z,98141.16
2023-02-23T09:15:13.808Z,98148.06
2023-02-23T09:17:42.872Z,98150.50
2023-02-23T09:20:13.489Z,98150.88
2023-02-23T09:22:41.961Z,98143.53
2023-02-23T09:25:10.374Z,98150.47
2023-02-23T09:27:37.046Z,98151.59
2023-02-23T09:30:04.462Z,98152.66
2023-02-23T09:32:31.229Z,98154.00
2023-02-23T09:34:58.049Z,98160.78
2023-02-23T09:37:25.112Z,98164.91
2023-02-23T09:39:51.857Z,98161.84
2023-02-23T09:42:41.562Z,98163.81
2023-02-23T09:45:27.103Z,98160.50
2023-02-23T09:48:12.429Z,98159.84
2023-02-23T09:50:42.076Z,98158.31
2023-02-23T09:53:40.594Z,98162.03
2023-02-23T09:56:14.239Z,98156.56
2023-02-23T09:58:41.243Z,98157.84
2023-02-23T10:01:27.254Z,98163.13
2023-02-23T10:04:06.090Z,98161.09
2023-02-23T10:06:34.522Z,98161.09
2023-02-23T10:09:34.243Z,98158.50
2023-02-23T10:12:00.868Z,98159.16
2023-02-23T10:14:50.717Z,98159.44
2023-02-23T10:17:17.574Z,98167.53
2023-02-23T10:19:50.656Z,98166.06
2023-02-23T10:22:19.623Z,98169.88
2023-02-23T10:24:54.238Z,98175.75
2023-02-23T10:27:23.482Z,98162.56
2023-02-23T10:29:56.432Z,98168.53
2023-02-23T10:32:50.927Z,98178.41
2023-02-23T10:35:21.036Z,98174.25
2023-02-23T10:37:49.094Z,98179.53
2023-02-23T10:40:25.363Z,98173.59
2023-02-23T10:42:52.741Z,98176.72
2023-02-23T10:45:23.301Z,98178.72
2023-02-23T10:47:53.142Z,98180.00
2023-02-23T10:50:22.531Z,98180.50
2023-02-23T10:52:52.658Z,98179.59
2023-02-23T10:55:31.689Z,98169.94
2023-02-23T10:58:04.554Z,98186.78
2023-02-23T11:00:34.303Z,98193.59
2023-02-23T11:03:03.231Z,98182.88
2023-02-23T11:05:50.404Z,98184.16
2023-02-23T11:08:31.599Z,98181.66
2023-02-23T11:11:03.961Z,98175.66
2023-02-23T11:13:40.104Z,98177.22
2023-02-23T11:16:07.108Z,98171.81
2023-02-23T11:18:33.949Z,98181.38
2023-02-23T11:21:00.749Z,98176.78
2023-02-23T11:23:35.797Z,98179.16
2023-02-23T11:26:06.244Z,98179.63
2023-02-23T11:28:41.641Z,98179.50
2023-02-23T11:31:19.198Z,98179.56
2023-02-23T11:33:47.220Z,98175.19
2023-02-23T11:36:24.526Z,98174.31
2023-02-23T11:39:23.474Z,98172.03
2023-02-23T11:42:22.101Z,98173.63
2023-02-23T11:45:03.216Z,98169.94
2023-02-23T11:47:31.714Z,98167.66
2023-02-23T11:49:59.412Z,98168.28
2023-02-23T11:52:28.011Z,98164.75
2023-02-23T11:54:56.628Z,98176.31
2023-02-23T11:57:33.902Z,98168.47
2023-02-23T12:00:08.666Z,98164.28
2023-02-23T12:03:17.432Z,98164.94
2023-02-23T12:05:53.189Z,98153.19
2023-02-23T12:08:37.698Z,98167.06
2023-02-23T12:11:10.396Z,98170.09
2023-02-23T12:13:50.875Z,98160.19
2023-02-23T12:16:28.788Z,98159.59
2023-02-23T12:18:59.450Z,98155.22
2023-02-23T12:21:38.091Z,98156.63
2023-02-23T12:24:42.174Z,98149.75
2023-02-23T12:27:16.404Z,98158.88
2023-02-23T12:29:55.410Z,98149.97
2023-02-23T12:32:27.924Z,98148.38
2023-02-23T12:35:23.992Z,98153.28
2023-02-23T12:38:06.578Z,98151.66
2023-02-23T12:40:37.353Z,98145.09
2023-02-23T12:43:52.837Z,98145.09
2023-02-23T12:46:27.790Z,98142.44
2023-02-23T12:49:03.130Z,98142.63
2023-02-23T12:51:34.453Z,98144.28
2023-02-23T12:54:01.720Z,98144.50
2023-02-23T12:56:49.989Z,98144.00
2023-02-23T12:59:19.242Z,98138.38
2023-02-23T13:01:58.598Z,98131.72
2023-02-23T13:04:47.165Z,98137.72
2023-02-23T13:07:21.995Z,98137.25
2023-02-23T13:10:13.064Z,98125.06
2023-02-23T13:12:42.804Z,98129.22
2023-02-23T13:15:20.089Z,98127.50
2023-02-23T13:18:02.800Z,98118.34
2023-02-23T13:20:36.978Z,98123.69
2023-02-23T13:23:12.724Z,98124.31
2023-02-23T13:26:11.499Z,98121.47
2023-02-23T13:28:49.103Z,98131.31
2023-02-23T13:31:26.475Z,98121.59
2023-02-23T13:33:54.968Z,98126.13
2023-02-23T13:36:22.465Z,98114.53
2023-02-23T13:39:23.540Z,98111.81
2023-02-23T13:42:14.445Z,98107.94
2023-02-23T13:44:50.452Z,98115.13
2023-02-23T13:47:38.679Z,98115.69
2023-02-23T13:50:17.552Z,98120.44
2023-02-23T13:52:46.305Z,98119.56
2023-02-23T13:55:37.230Z,98122.19
2023-02-23T13:58:28.717Z,98118.63
2023-02-23T14:01:05.378Z,98126.00
2023-02-23T14:03:36.652Z,98121.59
2023-02-23T14:06:04.226Z,98114.31
2023-02-23T14:08:37.437Z,98115.44
2023-02-23T14:11:05.763Z,98114.13
2023-02-23T14:13:35.091Z,98121.53
2023-02-23T14:16:20.065Z,98116.84
2023-02-23T14:19:12.301Z,98111.13
2023-02-23T14:21:41.994Z,98116.22
2023-02-23T14:24:19.396Z,98116.44
2023-02-23T14:27:12.070Z,98120.44
2023-02-23T14:30:10.886Z,98116.69
2023-02-23T14:32:39.750Z,98116.03
2023-02-23T14:35:32.230Z,98115.56
2023-02-23T14:38:02.015Z,98112.38
2023-02-23T14:40:34.795Z,98113.44
2023-02-23T14:43:03.584Z,98112.91
2023-02-23T14:45:38.773Z,98110.91
2023-02-23T14:48:09.887Z,98106.19
2023-02-23T14:50:38.978Z,98103.72
2023-02-23T14:53:13.783Z,98108.06
2023-02-23T14:55:43.328Z,98094.19
2023-02-23T14:58:26.746Z,98094.81
2023-02-23T15:00:53.428Z,98088.78
2023-02-23T15:03:22.275Z,98093.59
2023-02-23T15:05:58.662Z,98100.34
2023-02-23T15:08:27.993Z,98096.75
2023-02-23T15:11:07.329Z,98097.41
2023-02-23T15:13:40.387Z,98108.94
2023-02-23T15:16:16.288Z,98110.28
2023-02-23T15:18:44.653Z,98107.78
2023-02-23T15:21:21.207Z,98117.13
2023-02-23T15:23:51.647Z,98112.84
2023-02-23T15:26:25.457Z,98119.91
2023-02-23T15:28:52.541Z,98118.78
2023-02-23T15:31:19.859Z,98124.34
2023-02-23T15:33:50.649Z,98121.28
2023-02-23T15:36:30.816Z,98122.03
2023-02-23T15:38:59.838Z,98110.09
2023-02-23T15:41:32.464Z,98117.22
2023-02-23T15:44:06.510Z,98115.09
2023-02-23T15:46:34.253Z,98111.91
2023-02-23T15:49:03.524Z,98112.59
2023-02-23T15:51:37.626Z,98114.50
2023-02-23T15:54:32.656Z,98110.19
2023-02-23T15:57:06.220Z,98115.91
2023-02-23T15:59:39.114Z,98112.44
2023-02-23T16:02:17.884Z,98114.38
2023-02-23T16:04:48.754Z,98107.69
2023-02-23T16:07:17.134Z,98112.38
2023-02-23T16:10:05.543Z,98117.81
2023-02-23T16:12:37.157Z,98109.97
2023-02-23T16:15:22.908Z,98114.00
2023-02-23T16:17:58.322Z,98127.00
2023-02-23T16:20:41.424Z,98120.06
2023-02-23T16:23:33.430Z,98119.19
2023-02-23T16:26:06.715Z,98126.66
2023-02-23T16:28:35.798Z,98128.88
2023-02-23T16:31:08.451Z,98125.69
2023-02-23T16:33:37.876Z,98125.69
2023-02-23T16:36:10.906Z,98124.41
2023-02-23T16:38:40.341Z,98119.25
2023-02-23T16:41:19.475Z,98128.22
2023-02-23T16:43:48.889Z,98117.47
2023-02-23T16:46:17.469Z,98118.38
2023-02-23T16:48:44.437Z,98120.25
2023-02-23T16:51:19.972Z,98121.56
2023-02-23T16:53:46.675Z,98127.06
2023-02-23T16:56:17.427Z,98124.53
2023-02-23T16:58:53.656Z,98132.66
2023-02-23T17:01:20.814Z,98126.44
2023-02-23T17:03:53.043Z,98137.03
2023-02-23T17:06:21.721Z,98130.88
2023-02-23T17:08:57.675Z,98132.84
2023-02-23T17:11:25.345Z,98134.66
2023-02-23T17:13:52.060Z,98138.06
2023-02-23T17:16:19.672Z,98132.78
2023-02-23T17:18:46.642Z,98139.97
2023-02-23T17:21:14.343Z,98134.66
2023-02-23T17:23:50.762Z,98142.75
2023-02-23T17:26:20.068Z,98135.53
2023-02-23T17:28:47.298Z,98142.72
2023-02-23T17:31:16.106Z,98145.16
2023-02-23T17:33:43.657Z,98142.91
2023-02-23T17:36:14.085Z,98143.81
2023-02-23T17:38:44.480Z,98149.09
2023-02-23T17:41:20.407Z,98144.03
2023-02-23T17:43:47.474Z,98142.22
2023-02-23T17:46:14.594Z,98139.63
2023-02-23T17:48:44.605Z,98138.72
2023-02-23T17:51:13.036Z,98145.38
2023-02-23T17:53:40.456Z,98144.53
2023-02-23T17:56:07.698Z,98146.19
2023-02-23T17:58:35.015Z,98139.09
2023-02-23T18:01:04.703Z,98142.63
2023-02-23T18:03:33.207Z,98145.28
2023-02-23T18:06:03.804Z,98138.91
2023-02-23T18:08:30.691Z,98153.81
2023-02-23T18:10:57.768Z,98143.16
2023-02-23T18:13:25.697Z,98147.53
2023-02-23T18:15:59.779Z,98151.03
2023-02-23T18:18:26.640Z,98155.59
2023-02-23T18:20:56.325Z,98160.06
2023-02-23T18:23:24.412Z,98161.78
2023-02-23T18:25:51.116Z,98165.41
2023-02-23T18:28:18.431Z,98165.41
2023-02-23T18:30:45.557Z,98171.91
2023-02-23T18:33:13.072Z,98164.13
2023-02-23T18:35:44.725Z,98166.03
2023-02-23T18:38:12.715Z,98167.06
2023-02-23T18:40:40.101Z,98160.94
2023-02-23T18:43:08.105Z,98166.28
2023-02-23T18:45:34.777Z,98161.09
2023-02-23T18:48:01.408Z,98161.91
2023-02-23T18:50:28.364Z,98158.34
2023-02-23T18:52:56.359Z,98156.56
2023-02-23T18:55:23.843Z,98153.94
2023-02-23T18:57:52.580Z,98155.69
2023-02-23T19:00:20.314Z,98150.50
2023-02-23T19:02:47.749Z,98157.03
2023-02-23T19:05:18.114Z,98148.22
2023-02-23T19:07:45.629Z,98141.28
2023-02-23T19:10:14.873Z,98139.53
2023-02-23T19:12:42.087Z,98141.34
2023-02-23T19:15:09.353Z,98147.59
2023-02-23T19:17:36.241Z,98142.38
2023-02-23T19:20:07.959Z,98138.88
2023-02-23T19:22:34.849Z,98135.44
2023-02-23T19:25:01.584Z,98132.78
2023-02-23T19:27:28.303Z,98138.00
2023-02-23T19:29:55.115Z,98132.66
2023-02-23T19:32:21.957Z,98138.84
2023-02-23T19:34:48.801Z,98138.59
2023-02-23T19:37:15.462Z,98139.38
2023-02-23T19:39:42.101Z,98137.72
2023-02-23T19:42:09.127Z,98140.41
2023-02-23T19:44:35.852Z,98134.19
2023-02-23T19:47:02.533Z,98130.63
2023-02-23T19:49:29.444Z,98134.16
2023-02-23T19:51:57.725Z,98142.03
2023-02-23T19:54:26.063Z,98134.19
2023-02-23T19:56:53.081Z,98139.50
2023-02-23T19:59:19.875Z,98144.06
2023-02-23T20:01:46.589Z,98140.59
2023-02-23T20:04:13.296Z,98141.53
2023-02-23T20:06:46.846Z,98142.44
2023-02-23T20:09:14.661Z,98146.81
2023-02-23T20:11:42.548Z,98154.75
2023-02-23T20:14:09.910Z,98158.31
2023-02-23T20:16:36.852Z,98154.09
2023-02-23T20:19:06.383Z,98155.16
2023-02-23T20:21:33.873Z,98161.34
2023-02-23T20:24:05.551Z,98163.19
2023-02-23T20:26:36.871Z,98155.22
2023-02-23T20:29:06.781Z,98149.09
2023-02-23T20:31:35.545Z,98151.75
2023-02-23T20:34:07.745Z,98157.16
2023-02-23T20:36:34.395Z,98153.72
2023-02-23T20:39:01.097Z,98146.56
2023-02-23T20:41:28.748Z,98142.94
2023-02-23T20:43:56.080Z,98143.78
2023-02-23T20:46:23.015Z,98147.16
2023-02-23T20:48:49.760Z,98147.09
2023-02-23T20:51:19.068Z,98146.19
2023-02-23T20:53:48.044Z,98147.22
2023-02-23T20:56:17.922Z,98149.16
2023-02-23T20:58:45.320Z,98146.31
2023-02-23T21:01:18.289Z,98148.34
2023-02-23T21:03:45.126Z,98156.25
2023-02-23T21:06:11.831Z,98153.09
2023-02-23T21:08:39.920Z,98156.63
2023-02-23T21:11:08.762Z,98156.78
2023-02-23T21:13:36.341Z,98162.16
2023-02-23T21:16:03.358Z,98153.38
2023-02-23T21:18:30.791Z,98154.31
2023-02-23T21:21:06.690Z,98149.56
2023-02-23T21:23:33.325Z,98149.72
2023-02-23T21:26:07.023Z,98147.31
2023-02-23T21:28:33.819Z,98148.81
2023-02-23T21:31:00.495Z,98147.06
2023-02-23T21:33:27.242Z,98143.53
2023-02-23T21:35:58.556Z,98143.53
2023-02-23T21:38:25.846Z,98144.13
2023-02-23T21:40:52.686Z,98138.31
2023-02-23T21:43:19.462Z,98133.19
2023-02-23T21:45:46.690Z,98136.34
2023-02-23T21:48:13.882Z,98134.78
2023-02-23T21:50:40.625Z,98137.56
2023-02-23T21:53:09.258Z,98139.31
2023-02-23T21:55:38.557Z,98143.72
2023-02-23T21:58:07.086Z,98137.44
2023-02-23T22:00:35.643Z,98140.84
2023-02-23T22:03:03.420Z,98138.19
2023-02-23T22:05:30.360Z,98139.00
2023-02-23T22:07:57.008Z,98141.19
2023-02-23T22:10:24.173Z,98137.47
2023-02-23T22:12:55.851Z,98136.81
2023-02-23T22:15:30.073Z,98140.47
2023-02-23T22:17:56.859Z,98138.03
2023-02-23T22:20:23.497Z,98134.06
2023-02-23T22:22:53.082Z,98130.84
2023-02-23T22:25:20.347Z,98131.50
2023-02-23T22:27:47.360Z,98130.59
2023-02-23T22:30:15.249Z,98133.34
2023-02-23T22:32:43.058Z,98136.13
2023-02-23T22:35:11.102Z,98129.31
2023-02-23T22:37:38.665Z,98120.47
2023-02-23T22:40:16.422Z,98128.41
2023-02-23T22:42:49.626Z,98132.63
2023-02-23T22:45:17.912Z,98135.06
2023-02-23T22:47:44.783Z,98133.94
2023-02-23T22:50:13.986Z,98140.16
2023-02-23T22:52:40.749Z,98137.38
2023-02-23T22:55:08.000Z,98135.53
2023-02-23T22:57:34.794Z,98123.16
2023-02-23T23:00:11.338Z,98124.06
2023-02-23T23:02:38.048Z,98120.56
2023-02-23T23:05:05.131Z,98117.81
2023-02-23T23:07:32.273Z,98122.25
2023-02-23T23:10:02.348Z,98116.19
2023-02-23T23:12:29.055Z,98116.34
2023-02-23T23:14:56.555Z,98111.06
2023-02-23T23:17:23.306Z,98108.56
2023-02-23T23:19:50.100Z,98106.94
2023-02-23T23:22:17.397Z,98110.47
2023-02-23T23:24:46.010Z,98108.81
2023-02-23T23:27:14.508Z,98105.34
2023-02-23T23:29:45.587Z,98107.19
2023-02-23T23:32:17.227Z,98103.66
2023-02-23T23:34:47.888Z,98105.41
2023-02-23T23:37:18.902Z,98110.09
2023-02-23T23:39:46.069Z,98107.63
2023-02-23T23:42:12.907Z,98108.63
2023-02-23T23:44:39.577Z,98101.63
2023-02-23T23:47:06.475Z,98103.28
2023-02-23T23:49:37.855Z,98096.56
2023-02-23T23:52:05.971Z,98092.25
2023-02-23T23:54:39.133Z,98095.03
2023-02-23T23:57:06.588Z,98092.97
2023-02-23T23:59:34.945Z,98099.22
